• Join FlightAware (Why Join?)
  • Login
  • US Flag 
03:34AM EDT


 

Airport Tracker/Info


-or-


 

Live Flight TrackerFlight Track Log ✈ OPT905 ✈ 21-Jun-2013 ✈ KSAT - KSAN

Flight Track Log - Related Links

Times and Time Zones

All times are in EDT time to prevent confusion due to time zone crossing. See the OPT905 flight status page for this flight to view local times or setup timezone preferences in your user account.

Time Position Orientation Groundspeed Altitude Reporting Facility
EDT Latitude Longitude Course Direction KTS MPH feet Rate Location/Type
04:56PM 29.4956 -98.4192 129° Southeast 204 235 3,700  Level Houston Center
04:57PM 29.4556 -98.4128 172° South 218 251 6,100 2,400 Climbing Houston Center
04:58PM 29.4347 -98.4956 254° West 261 300 8,300 2,160 Climbing Houston Center
04:59PM 29.4936 -98.5578 317° Northwest 303 349 10,600 2,040 Climbing Houston Center
05:02PM 29.5514 -98.7867 327° Northwest  Level Estimated
05:03PM 29.8447 -98.7739 308° West 352 405 19,000  Level Houston Center
05:04PM 29.9231 -98.8481 321° Northwest 366 421 20,600 1,680 Climbing Houston Center
05:06PM 29.9936 -98.9506 308° West 376 433 22,500 1,560 Climbing Houston Center
05:07PM 30.0608 -99.0461 309° West 385 443 23,900 1,320 Climbing Houston Center
05:08PM 30.1175 -99.1450 304° West 386 444 25,300 1,620 Climbing Houston Center
05:09PM 29.7521 -99.5969 308° West  Level Estimated
05:09PM 30.1508 -99.2631 288° West 385 443 27,300  Level Houston Center
05:10PM 30.1817 -99.3797 287° West 382 440 29,400 1,920 Climbing Houston Center
05:11PM 30.2192 -99.5169 288° West 375 432 31,300 1,980 Climbing Houston Center
05:12PM 30.2494 -99.6306 287° West 372 428 33,500 1,920 Climbing Houston Center
05:13PM 30.2783 -99.7406 287° West 362 417 35,300 1,500 Climbing Houston Center
05:14PM 30.3072 -99.8472 287° West 352 405 36,700 1,140 Climbing Houston Center
05:15PM 30.3353 -99.9547 287° West 353 406 37,700 600 Climbing Houston Center
05:16PM 30.3706 -100.0858 287° West 356 410 38,000 120 Climbing Houston Center
05:17PM 30.4019 -100.2064 287° West 384 442 38,000  Level Houston Center
05:18PM 30.4333 -100.3300 286° West 400 460 38,000  Level Houston Center
05:19PM 30.4647 -100.4547 286° West 404 465 38,000  Level Houston Center
05:20PM 30.4967 -100.5781 287° West 403 464 38,000  Level Houston Center
05:21PM 30.5339 -100.7239 287° West 398 458 38,000  Level Houston Center
05:22PM 30.5664 -100.8475 287° West 400 460 38,000  Level Houston Center
05:23PM 30.5969 -100.9697 286° West 397 457 38,000  Level Houston Center
05:24PM 30.6278 -101.0944 286° West 402 463 38,000  Level Houston Center
05:25PM 30.6581 -101.2172 286° West 398 458 38,000  Level Houston Center
05:26PM 30.6947 -101.3658 286° West 401 461 38,000  Level Houston Center
05:27PM 30.7264 -101.4869 287° West 397 457 38,000  Level Houston Center
05:28PM 30.7564 -101.6108 286° West 397 457 38,000  Level Houston Center
05:29PM 30.7861 -101.7339 286° West 397 457 38,000  Level Houston Center
05:30PM 30.8175 -101.8581 286° West 399 459 38,000  Level Houston Center
05:31PM 30.8464 -101.9828 285° West 400 460 38,000  Level Houston Center
05:32PM 30.8939 -102.1281 291° West 401 461 38,000  Level Houston Center
05:33PM 30.9539 -102.2394 302° West 402 463 38,000  Level Houston Center
05:35PM 31.0161 -102.3492 304° West 404 465 38,000  Level Houston Center
05:35PM 31.0619 -102.4369 301° West 405 466 38,000  Level Albuquerque Center
05:36PM 31.1197 -102.5489 301° West 403 464 38,000  Level Albuquerque Center
05:37PM 31.1786 -102.6614 301° West 404 465 38,000  Level Albuquerque Center
05:38PM 31.2456 -102.7967 300° West 403 464 38,000  Level Albuquerque Center
05:39PM 31.2825 -102.9208 289° West 408 470 38,000  Level Albuquerque Center
05:41PM 31.3089 -103.0469 284° West 402 463 38,000  Level Albuquerque Center
05:42PM 31.3353 -103.1739 284° West 402 463 38,000  Level Albuquerque Center
05:43PM 31.3619 -103.3019 284° West 403 464 38,000  Level Albuquerque Center
05:44PM 31.3886 -103.4286 284° West 403 464 38,000  Level Albuquerque Center
05:45PM 31.4172 -103.5625 284° West 407 468 38,000  Level Albuquerque Center
05:46PM 31.4481 -103.7136 283° West 403 464 38,000  Level Albuquerque Center
05:47PM 31.4747 -103.8417 284° West 403 464 38,000  Level Albuquerque Center
05:48PM 31.5019 -103.9711 284° West 408 470 38,000  Level Albuquerque Center
05:49PM 31.5286 -104.0992 284° West 408 470 38,000  Level Albuquerque Center
05:50PM 31.5547 -104.2283 283° West 409 471 38,000  Level Albuquerque Center
05:51PM 31.5814 -104.3567 284° West 408 470 38,000  Level Albuquerque Center
05:52PM 31.6114 -104.5089 283° West 406 467 38,000  Level Albuquerque Center
05:53PM 31.6369 -104.6383 283° West 406 467 38,000 -60 Level Albuquerque Center
05:54PM 31.6622 -104.7675 283° West 408 470 37,900  Descending Albuquerque Center
05:55PM 31.6869 -104.8953 283° West 406 467 38,000  Climbing Albuquerque Center
05:56PM 31.7122 -105.0219 283° West 404 465 38,000  Level Albuquerque Center
05:57PM 31.7408 -105.1731 283° West 399 459 38,000  Level Albuquerque Center
05:58PM 31.7656 -105.2994 283° West 400 460 38,000  Level Albuquerque Center
05:59PM 31.7889 -105.4231 283° West 392 451 38,000  Level Albuquerque Center
06:00PM 31.8139 -105.5506 283° West 400 460 38,000  Level Albuquerque Center
06:01PM 31.8372 -105.6750 282° West 395 455 38,000  Level Albuquerque Center
06:02PM 31.8622 -105.8006 283° West 395 455 38,000  Level Albuquerque Center
06:03PM 31.8903 -105.9525 282° West 397 457 38,000  Level Albuquerque Center
06:04PM 31.9111 -106.0647 282° West 398 458 38,000  Level Albuquerque Center
06:05PM 31.9400 -106.2164 283° West 397 457 38,000  Level Albuquerque Center
06:06PM 31.9650 -106.3447 283° West 403 464 38,000  Level Albuquerque Center
06:07PM 31.9875 -106.4736 282° West 401 461 38,000  Level Albuquerque Center
06:08PM 32.0106 -106.6008 282° West 398 458 38,000  Level Albuquerque Center
06:09PM 32.0342 -106.7289 282° West 400 460 38,000  Level Albuquerque Center
06:10PM 32.0564 -106.8561 282° West 397 457 38,000  Level Albuquerque Center
06:11PM 32.0786 -106.9844 282° West 397 457 38,000  Level Albuquerque Center
06:13PM 32.1061 -107.1383 282° West 397 457 38,000  Level Albuquerque Center
06:14PM 32.1281 -107.2664 281° West 396 456 38,000  Level Albuquerque Center
06:15PM 32.1503 -107.3956 282° West 398 458 38,000  Level Albuquerque Center
06:16PM 32.1722 -107.5222 282° West 394 453 38,000  Level Albuquerque Center
06:17PM 32.1947 -107.6492 282° West 393 452 38,000  Level Albuquerque Center
06:18PM 32.2161 -107.7761 281° West 393 452 38,000  Level Albuquerque Center
06:19PM 32.2378 -107.9028 281° West 392 451 38,000  Level Albuquerque Center
06:20PM 32.2592 -108.0281 281° West 390 449 38,000  Level Albuquerque Center
06:21PM 32.2833 -108.1769 281° West 385 443 38,000  Level Albuquerque Center
06:22PM 32.3056 -108.3039 282° West 391 450 38,000  Level Albuquerque Center
06:23PM 32.3267 -108.4286 281° West 389 448 38,000  Level Albuquerque Center
06:24PM 32.3467 -108.5547 281° West 390 449 38,000  Level Albuquerque Center
06:25PM 32.3672 -108.6822 281° West 393 452 38,000  Level Albuquerque Center
06:26PM 32.3903 -108.8103 282° West 397 457 38,000  Level Albuquerque Center
06:27PM 32.4122 -108.9353 282° West 391 450 38,000  Level Albuquerque Center
06:28PM 32.4361 -109.0875 281° West 391 450 38,000  Level Albuquerque Center
06:29PM 32.4500 -109.2000 278° West 388 447 38,000  Level Albuquerque Center
06:30PM 32.4742 -109.3500 281° West 389 448 38,000  Level Albuquerque Center
06:31PM 32.4942 -109.4769 281° West 392 451 38,000  Level Albuquerque Center
06:32PM 32.5153 -109.6039 281° West 394 453 38,000  Level Albuquerque Center
06:33PM 32.5361 -109.7325 281° West 399 459 38,000  Level Albuquerque Center
06:34PM 32.5550 -109.8578 280° West 392 451 38,000  Level Albuquerque Center
06:35PM 32.5761 -109.9839 281° West 391 450 38,000  Level Albuquerque Center
06:36PM 32.5994 -110.1361 280° West 393 452 38,000  Level Albuquerque Center
06:37PM 32.6175 -110.2622 280° West 392 451 38,000  Level Albuquerque Center
06:38PM 32.6369 -110.3881 280° West 392 451 38,000  Level Albuquerque Center
06:39PM 32.6567 -110.5158 280° West 393 452 38,000  Level Albuquerque Center
06:40PM 32.6747 -110.6444 280° West 395 455 38,000  Level Albuquerque Center
06:41PM 32.6936 -110.7736 280° West 395 455 38,000  Level Albuquerque Center
06:42PM 32.7164 -110.9269 280° West 394 453 38,000  Level Albuquerque Center
06:43PM 32.7344 -111.0553 280° West 394 453 38,000  Level Albuquerque Center
06:44PM 32.7539 -111.1822 280° West 391 450 38,000  Level Albuquerque Center
06:46PM 32.7711 -111.3097 279° West 391 450 38,000  Level Albuquerque Center
06:47PM 32.7903 -111.4367 280° West 391 450 38,000  Level Albuquerque Center
06:48PM 32.8081 -111.5653 279° West 394 453 38,000  Level Albuquerque Center
06:49PM 32.8258 -111.6947 279° West 396 456 38,000  Level Albuquerque Center
06:50PM 32.8467 -111.8508 279° West 397 457 38,000  Level Albuquerque Center
06:51PM 32.8650 -111.9797 280° West 397 457 38,000  Level Albuquerque Center
06:52PM 32.8819 -112.1119 279° West 398 458 38,000  Level Albuquerque Center
06:53PM 32.8983 -112.2408 279° West 398 458 38,000  Level Albuquerque Center
06:54PM 32.9156 -112.3681 279° West 398 458 38,000  Level Albuquerque Center
06:55PM 32.9328 -112.4972 279° West 399 459 38,000  Level Albuquerque Center
06:56PM 32.9542 -112.6514 279° West 397 457 38,000 -360 Level Albuquerque Center
06:57PM 32.9439 -112.7797 265° West 393 452 37,300 -1,380 Descending Albuquerque Center
06:59PM 32.9214 -113.0092 263° West 395 455 34,100 -1,200 Descending Los Angeles Center
07:00PM 32.9144 -113.1375 266° West 394 453 34,000 -60 Descending Los Angeles Center
07:01PM 32.9050 -113.2983 266° West 408 470 34,000  Level Los Angeles Center
07:02PM 32.8978 -113.4158 266° West 411 473 34,000  Level Los Angeles Center
07:03PM 32.8869 -113.5794 266° West 414 476 34,000  Level Los Angeles Center
07:04PM 32.8786 -113.7144 266° West 411 473 34,000  Level Los Angeles Center
07:05PM 32.8694 -113.8494 265° West 408 470 34,000  Level Los Angeles Center
07:06PM 32.8608 -113.9833 266° West 408 470 34,000  Level Los Angeles Center
07:07PM 32.8528 -114.1169 266° West 405 466 34,000 -660 Level Los Angeles Center
07:08PM 32.8428 -114.2514 265° West 408 470 32,700 -1,800 Descending Los Angeles Center
07:09PM 32.8317 -114.4169 265° West 418 481 30,300 -2,100 Descending Los Angeles Center
07:10PM 32.8214 -114.5531 265° West 414 476 28,400 -1,140 Descending Los Angeles Center
07:11PM 32.8117 -114.6850 265° West 403 464 28,000 -240 Descending Los Angeles Center
07:12PM 32.8025 -114.8183 265° West 404 465 28,000 -300 Level Los Angeles Center
07:13PM 32.7911 -114.9539 264° West 411 473 27,500 -1,440 Descending Los Angeles Center
07:14PM 32.7803 -115.1156 265° West 406 467 25,100 -2,160 Descending Los Angeles Center
07:15PM 32.7692 -115.2414 264° West 386 444 23,100 -2,040 Descending Los Angeles Center
07:16PM 32.7589 -115.3614 264° West 369 425 21,000 -2,040 Descending Los Angeles Center
07:17PM 32.7503 -115.4817 265° West 366 421 19,000 -2,100 Descending Los Angeles Center
07:18PM 32.7494 -115.6050 270° West 375 432 16,700 -1,980 Descending Los Angeles Center
07:19PM 32.7536 -115.7272 272° West 371 427 15,000 -1,680 Descending Los Angeles Center
07:20PM 32.7572 -115.8742 272° West 369 425 13,300 -1,440 Descending Los Angeles Center
07:21PM 32.7600 -115.9844 272° West 340 391 12,100 -1,200 Descending Los Angeles Center
07:23PM 32.7628 -116.0972 272° West 338 389 10,900 -1,140 Descending Los Angeles Center
07:24PM 32.7650 -116.2089 271° West 338 389 9,800 -540 Descending Los Angeles Center
07:25PM 32.7622 -116.3208 268° West 338 389 9,800  Level Los Angeles Center
07:26PM 32.7453 -116.4331 260° West 340 391 9,800 -60 Level Los Angeles Center
07:27PM 32.7314 -116.5278 260° West 294 338 9,700 -780 Descending Los Angeles Center
07:28PM 32.7178 -116.6186 260° West 281 323 8,200 -1,320 Descending Los Angeles Center
07:29PM 32.7106 -116.7211 265° West 263 303 7,000 -1,020 Descending Los Angeles Center
07:30PM 32.7075 -116.8069 268° West 260 299 6,100 -1,020 Descending Los Angeles Center
07:31PM 32.6833 -116.8833 249° West 264 304 5,200 -840 Descending Southern California TRACON
07:32PM 32.6833 -116.9500 270° West 232 267 4,600 -1,020 Descending Southern California TRACON
07:33PM 32.7000 -117.0333 283° West 219 252 3,200 -1,320 Descending Southern California TRACON
07:34PM 32.7000 -117.0833 270° West 178 205 2,000 -1,080 Descending Southern California TRACON
07:35PM 32.7167 -117.1333 292° West 149 171 1,100 -840 Descending Southern California TRACON
07:36PM 32.7333 -117.1667 301° West 131 151 400 -720 Descending Southern California TRACON
07:38PM 32.7333 -117.1833 281° West  Level FlightAware Approximate